Terminal Aerodrome Forecast
Issued by NWS

Home | Current Version | Previous Version | Text Only | Print | Product List | Glossary On
Versions: 1 2 3 4 5 6 7 8 9 10 11 12 13 14 15 16
000
FTUS43 KGRB 302320
TAFMTW
TAF
KMTW 302320Z 0100/0124 04009G16KT P6SM SCT035 BKN100
     FM010200 04012KT P6SM VCSH SCT030 BKN060 WS018/08030KT
      TEMPO 0106/0109 6SM -RA BKN025
     FM010900 02010KT 6SM -RA BKN025 WS018/06030KT
     FM011400 04013G20KT P6SM BKN035
      TEMPO 0114/0118 5SM -RA
     FM011800 04015G25KT P6SM SCT040 BKN100=

USA.gov is the U.S. government's official web portal to all federal, state and local government web resources and services.